createdAt,value
2023-02-01T00:02:06.885Z,3.08
2023-02-01T00:04:33.269Z,2.80
2023-02-01T00:06:59.719Z,2.95
2023-02-01T00:09:26.084Z,2.70
2023-02-01T00:11:52.467Z,2.60
2023-02-01T00:14:19.026Z,2.70
2023-02-01T00:16:45.411Z,2.60
2023-02-01T00:19:13.228Z,2.72
2023-02-01T00:21:39.738Z,2.40
2023-02-01T00:24:06.522Z,2.33
2023-02-01T00:26:34.600Z,2.53
2023-02-01T00:29:01.307Z,2.75
2023-02-01T00:31:29.458Z,2.85
2023-02-01T00:33:56.063Z,2.53
2023-02-01T00:36:22.459Z,2.25
2023-02-01T00:38:48.862Z,2.50
2023-02-01T00:41:16.884Z,2.17
2023-02-01T00:43:43.512Z,2.58
2023-02-01T00:46:10.313Z,2.47
2023-02-01T00:48:37.161Z,2.25
2023-02-01T00:51:08.426Z,2.35
2023-02-01T00:53:35.039Z,1.90
2023-02-01T00:56:01.774Z,2.50
2023-02-01T00:58:28.273Z,2.33
2023-02-01T01:01:14.202Z,2.10
2023-02-01T01:06:10.324Z,2.25
2023-02-01T01:08:36.962Z,2.22
2023-02-01T01:11:10.615Z,2.85
2023-02-01T01:13:37.363Z,2.40
2023-02-01T01:16:04.686Z,2.60
2023-02-01T01:18:31.747Z,2.25
2023-02-01T01:20:58.580Z,2.40
2023-02-01T01:23:24.987Z,2.13
2023-02-01T01:25:51.411Z,2.22
2023-02-01T01:28:17.798Z,2.40
2023-02-01T01:30:44.412Z,2.90
2023-02-01T01:33:13.422Z,2.20
2023-02-01T01:35:39.809Z,2.38
2023-02-01T01:38:06.216Z,1.90
2023-02-01T01:40:32.668Z,2.10
2023-02-01T01:42:59.121Z,2.55
2023-02-01T01:45:32.458Z,2.30
2023-02-01T01:48:00.049Z,2.15
2023-02-01T01:50:30.168Z,2.22
2023-02-01T01:52:58.327Z,2.42
2023-02-01T01:55:25.603Z,2.22
2023-02-01T01:57:55.145Z,2.42
2023-02-01T02:00:22.477Z,2.22
2023-02-01T02:02:53.955Z,2.25
2023-02-01T02:05:22.309Z,2.45
2023-02-01T02:07:49.689Z,2.00
2023-02-01T02:10:16.502Z,2.00
2023-02-01T02:12:44.201Z,2.00
2023-02-01T02:15:11.982Z,2.00
2023-02-01T02:17:44.071Z,2.00
2023-02-01T02:20:22.969Z,2.20
2023-02-01T02:23:01.853Z,2.00
2023-02-01T02:25:28.392Z,2.40
2023-02-01T02:28:03.822Z,2.20
2023-02-01T02:33:21.477Z,2.53
2023-02-01T02:35:48.187Z,2.00
2023-02-01T02:38:17.555Z,2.47
2023-02-01T02:40:48.940Z,1.80
2023-02-01T02:43:36.949Z,1.88
2023-02-01T02:46:29.290Z,1.77
2023-02-01T02:49:01.926Z,1.95
2023-02-01T02:52:02.490Z,1.95
2023-02-01T02:54:52.890Z,1.92
2023-02-01T02:57:57.624Z,2.33
2023-02-01T03:00:46.733Z,1.95
2023-02-01T03:03:31.893Z,1.83
2023-02-01T03:05:58.415Z,1.92
2023-02-01T03:08:26.868Z,1.65
2023-02-01T03:11:07.003Z,1.98
2023-02-01T03:13:36.410Z,2.13
2023-02-01T03:16:05.840Z,2.55
2023-02-01T03:19:01.730Z,1.63
2023-02-01T03:21:34.192Z,2.42
2023-02-01T03:24:02.674Z,1.83
2023-02-01T03:26:30.366Z,2.38
2023-02-01T03:28:58.478Z,2.05
2023-02-01T03:31:25.286Z,1.80
2023-02-01T03:33:51.922Z,2.00
2023-02-01T03:36:26.963Z,2.13
2023-02-01T03:38:59.578Z,1.90
2023-02-01T03:41:29.333Z,2.75
2023-02-01T03:44:12.838Z,1.80
2023-02-01T03:46:42.421Z,2.20
2023-02-01T03:49:10.625Z,2.10
2023-02-01T03:51:39.031Z,2.15
2023-02-01T03:54:07.290Z,2.25
2023-02-01T03:56:37.330Z,2.10
2023-02-01T03:59:06.476Z,2.22
2023-02-01T04:01:32.945Z,2.00
2023-02-01T04:03:59.495Z,1.75
2023-02-01T04:06:26.049Z,2.75
2023-02-01T04:08:52.773Z,1.77
2023-02-01T04:11:19.300Z,2.40
2023-02-01T04:13:45.812Z,2.25
2023-02-01T04:16:12.262Z,2.22
2023-02-01T04:18:38.640Z,2.38
2023-02-01T04:21:05.322Z,2.65
2023-02-01T04:23:32.630Z,1.92
2023-02-01T04:26:02.752Z,2.28
2023-02-01T04:28:29.697Z,2.80
2023-02-01T04:30:56.199Z,2.38
2023-02-01T04:33:22.629Z,1.95
2023-02-01T04:35:49.100Z,1.80
2023-02-01T04:38:15.517Z,2.15
2023-02-01T04:40:41.898Z,2.40
2023-02-01T04:43:08.999Z,2.05
2023-02-01T04:45:35.394Z,2.08
2023-02-01T04:48:01.725Z,2.00
2023-02-01T04:50:29.405Z,2.47
2023-02-01T04:52:56.010Z,2.55
2023-02-01T04:55:22.347Z,2.58
2023-02-01T04:57:48.766Z,2.13
2023-02-01T05:00:15.380Z,2.35
2023-02-01T05:02:41.751Z,2.60
2023-02-01T05:05:08.340Z,2.42
2023-02-01T05:07:34.771Z,2.45
2023-02-01T05:10:01.178Z,2.08
2023-02-01T05:12:46.094Z,2.00
2023-02-01T05:15:12.570Z,2.10
2023-02-01T05:17:40.991Z,2.53
2023-02-01T05:20:08.113Z,2.28
2023-02-01T05:22:37.513Z,2.33
2023-02-01T05:25:04.100Z,2.03
2023-02-01T05:27:31.411Z,2.95
2023-02-01T05:29:57.798Z,2.25
2023-02-01T05:32:24.192Z,2.40
2023-02-01T05:34:50.675Z,2.45
2023-02-01T05:37:17.087Z,1.90
2023-02-01T05:39:43.469Z,2.08
2023-02-01T05:42:09.784Z,2.33
2023-02-01T05:44:36.125Z,2.50
2023-02-01T05:47:02.485Z,2.58
2023-02-01T05:49:28.872Z,1.60
2023-02-01T05:51:55.220Z,1.67
2023-02-01T05:54:21.612Z,1.90
2023-02-01T05:56:47.996Z,1.80
2023-02-01T05:59:14.365Z,2.50
2023-02-01T06:01:40.707Z,2.15
2023-02-01T06:04:07.225Z,2.20
2023-02-01T06:06:33.746Z,2.10
2023-02-01T06:09:01.090Z,2.20
2023-02-01T06:11:34.547Z,2.25
2023-02-01T06:14:01.027Z,2.38
2023-02-01T06:16:27.524Z,2.22
2023-02-01T06:18:54.702Z,1.95
2023-02-01T06:21:24.653Z,1.90
2023-02-01T06:23:51.878Z,2.17
2023-02-01T06:26:21.078Z,2.25
2023-02-01T06:28:47.528Z,2.25
2023-02-01T06:31:14.219Z,2.10
2023-02-01T06:33:41.423Z,2.38
2023-02-01T06:36:08.565Z,2.67
2023-02-01T06:38:37.936Z,2.38
2023-02-01T06:41:04.764Z,3.20
2023-02-01T06:43:31.741Z,2.38
2023-02-01T06:46:02.261Z,2.25
2023-02-01T06:48:28.630Z,2.47
2023-02-01T06:50:55.025Z,2.65
2023-02-01T06:53:21.583Z,2.80
2023-02-01T06:55:54.716Z,2.67
2023-02-01T06:58:21.116Z,2.38
2023-02-01T07:00:47.524Z,2.75
2023-02-01T07:03:13.902Z,2.67
2023-02-01T07:05:40.233Z,2.22
2023-02-01T07:08:06.605Z,2.40
2023-02-01T07:10:32.996Z,1.98
2023-02-01T07:12:59.433Z,2.65
2023-02-01T07:15:25.762Z,2.40
2023-02-01T07:17:52.319Z,2.60
2023-02-01T07:20:18.846Z,2.38
2023-02-01T07:22:45.162Z,2.70
2023-02-01T07:25:11.581Z,2.55
2023-02-01T07:27:38.361Z,2.58
2023-02-01T07:30:05.450Z,2.38
2023-02-01T07:32:31.869Z,2.45
2023-02-01T07:34:58.920Z,2.42
2023-02-01T07:37:25.579Z,2.42
2023-02-01T07:39:52.226Z,2.10
2023-02-01T07:42:18.887Z,2.53
2023-02-01T07:44:45.306Z,2.30
2023-02-01T07:47:11.632Z,2.63
2023-02-01T07:49:38.019Z,2.70
2023-02-01T07:52:04.362Z,2.50
2023-02-01T07:54:30.758Z,2.22
2023-02-01T07:56:57.121Z,1.95
2023-02-01T07:59:23.463Z,2.50
2023-02-01T08:01:49.831Z,2.15
2023-02-01T08:04:16.197Z,2.45
2023-02-01T08:06:42.658Z,2.33
2023-02-01T08:09:09.225Z,2.22
2023-02-01T08:11:37.578Z,2.70
2023-02-01T08:14:03.977Z,2.53
2023-02-01T08:16:30.399Z,2.15
2023-02-01T08:18:57.555Z,2.15
2023-02-01T08:21:25.645Z,2.03
2023-02-01T08:23:52.536Z,2.25
2023-02-01T08:26:23.389Z,2.25
2023-02-01T08:28:52.412Z,2.22
2023-02-01T08:31:20.126Z,2.00
2023-02-01T08:33:49.402Z,2.20
2023-02-01T08:36:15.836Z,2.10
2023-02-01T08:38:42.277Z,2.10
2023-02-01T08:41:13.427Z,2.25
2023-02-01T08:43:39.923Z,2.10
2023-02-01T08:46:06.860Z,2.03
2023-02-01T08:48:35.102Z,1.85
2023-02-01T08:51:02.609Z,2.28
2023-02-01T08:53:28.964Z,1.80
2023-02-01T08:55:55.302Z,1.98
2023-02-01T08:58:22.668Z,1.80
2023-02-01T09:00:49.785Z,2.35
2023-02-01T09:03:16.438Z,2.22
2023-02-01T09:05:49.496Z,1.73
2023-02-01T09:08:16.454Z,1.95
2023-02-01T09:10:43.309Z,2.20
2023-02-01T09:13:10.053Z,2.53
2023-02-01T09:15:36.484Z,2.05
2023-02-01T09:18:02.912Z,2.08
2023-02-01T09:20:29.245Z,1.98
2023-02-01T09:22:56.232Z,2.58
2023-02-01T09:25:22.809Z,2.05
2023-02-01T09:27:49.137Z,2.25
2023-02-01T09:30:15.591Z,2.30
2023-02-01T09:32:41.961Z,2.05
2023-02-01T09:35:08.404Z,2.60
2023-02-01T09:37:34.764Z,1.80
2023-02-01T09:40:01.124Z,1.98
2023-02-01T09:42:31.125Z,1.95
2023-02-01T09:44:57.512Z,2.53
2023-02-01T09:47:24.952Z,2.38
2023-02-01T09:49:57.436Z,2.97
2023-02-01T09:52:50.143Z,2.50
2023-02-01T09:55:20.157Z,2.20
2023-02-01T09:58:07.015Z,1.67
2023-02-01T10:00:38.426Z,1.92
2023-02-01T10:03:04.877Z,1.98
2023-02-01T10:05:40.056Z,2.33
2023-02-01T10:08:15.260Z,1.90
2023-02-01T10:10:44.323Z,2.28
2023-02-01T10:13:13.439Z,1.98
2023-02-01T10:15:42.889Z,2.03
2023-02-01T10:18:28.429Z,2.40
2023-02-01T10:21:06.638Z,1.80
2023-02-01T10:23:39.052Z,2.25
2023-02-01T10:26:25.370Z,2.25
2023-02-01T10:28:57.091Z,1.80
2023-02-01T10:31:26.112Z,2.15
2023-02-01T10:33:56.568Z,2.35
2023-02-01T10:36:26.231Z,1.77
2023-02-01T10:38:52.632Z,1.90
2023-02-01T10:41:21.135Z,1.90
2023-02-01T10:43:50.544Z,1.98
2023-02-01T10:46:17.282Z,1.80
2023-02-01T10:48:43.690Z,2.30
2023-02-01T10:51:20.392Z,1.63
2023-02-01T10:53:53.836Z,2.10
2023-02-01T10:56:24.761Z,1.45
2023-02-01T10:58:52.460Z,1.67
2023-02-01T11:01:21.146Z,1.60
2023-02-01T11:03:58.334Z,1.90
2023-02-01T11:06:27.873Z,1.92
2023-02-01T11:08:55.691Z,1.67
2023-02-01T11:11:22.575Z,1.52
2023-02-01T11:13:56.990Z,1.73
2023-02-01T11:16:29.095Z,1.52
2023-02-01T11:18:58.373Z,1.80
2023-02-01T11:21:24.762Z,1.50
2023-02-01T11:23:51.589Z,1.52
2023-02-01T11:26:24.294Z,1.60
2023-02-01T11:28:57.643Z,1.85
2023-02-01T11:31:24.887Z,1.80
2023-02-01T11:33:54.895Z,1.40
2023-02-01T11:36:23.729Z,1.95
2023-02-01T11:39:13.153Z,1.85
2023-02-01T11:42:05.577Z,1.55
2023-02-01T11:44:36.698Z,1.65
2023-02-01T11:47:21.897Z,1.83
2023-02-01T11:49:49.245Z,1.60
2023-02-01T11:52:18.738Z,2.00
2023-02-01T11:54:48.124Z,1.92
2023-02-01T11:57:20.518Z,1.90
2023-02-01T11:59:57.138Z,1.65
2023-02-01T12:02:50.649Z,1.80
2023-02-01T12:05:27.045Z,1.70
2023-02-01T12:07:53.342Z,2.00
2023-02-01T12:10:28.908Z,1.92
2023-02-01T12:15:48.252Z,1.80
2023-02-01T12:18:30.047Z,1.92
2023-02-01T12:20:59.575Z,1.70
2023-02-01T12:23:36.710Z,1.65
2023-02-01T12:26:29.405Z,1.80
2023-02-01T12:29:04.788Z,2.10
2023-02-01T12:31:52.020Z,1.60
2023-02-01T12:34:24.168Z,1.60
2023-02-01T12:37:09.456Z,1.77
2023-02-01T12:39:35.772Z,1.60
2023-02-01T12:42:13.001Z,2.42
2023-02-01T12:44:45.044Z,1.58
2023-02-01T12:47:20.445Z,1.50
2023-02-01T12:49:52.710Z,1.95
2023-02-01T12:52:40.183Z,1.10
2023-02-01T12:55:09.485Z,1.38
2023-02-01T12:57:41.607Z,1.27
2023-02-01T13:00:34.939Z,1.38
2023-02-01T13:03:18.919Z,1.52
2023-02-01T13:05:51.339Z,1.50
2023-02-01T13:08:32.074Z,1.50
2023-02-01T13:11:19.243Z,1.83
2023-02-01T13:13:48.817Z,1.35
2023-02-01T13:16:29.816Z,1.65
2023-02-01T13:19:04.583Z,1.63
2023-02-01T13:21:34.239Z,1.63
2023-02-01T13:24:00.577Z,1.30
2023-02-01T13:26:26.973Z,1.70
2023-02-01T13:28:56.440Z,1.77
2023-02-01T13:31:49.416Z,1.70
2023-02-01T13:34:25.425Z,1.80
2023-02-01T13:36:55.065Z,1.38
2023-02-01T13:39:40.387Z,1.80
2023-02-01T13:42:14.807Z,1.55
2023-02-01T13:44:41.216Z,1.70
2023-02-01T13:47:22.971Z,1.88
2023-02-01T13:49:49.465Z,2.15
2023-02-01T13:52:24.897Z,1.80
2023-02-01T13:55:01.647Z,1.70
2023-02-01T13:57:41.187Z,1.75
2023-02-01T14:00:27.976Z,1.95
2023-02-01T14:03:00.352Z,1.55
2023-02-01T14:05:26.945Z,2.10
2023-02-01T14:08:06.194Z,1.73
2023-02-01T14:10:55.269Z,1.60
2023-02-01T14:13:21.639Z,2.28
2023-02-01T14:16:09.175Z,1.40
2023-02-01T14:18:38.588Z,1.75
2023-02-01T14:21:24.262Z,1.48
2023-02-01T14:23:53.632Z,2.25
2023-02-01T14:26:21.672Z,1.80
2023-02-01T14:28:51.662Z,2.20
2023-02-01T14:31:26.856Z,1.90
2023-02-01T14:33:56.762Z,2.10
2023-02-01T14:36:23.565Z,2.20
2023-02-01T14:38:50.543Z,2.10
2023-02-01T14:41:35.991Z,2.00
2023-02-01T14:44:02.318Z,2.25
2023-02-01T14:47:07.135Z,2.20
2023-02-01T14:49:34.112Z,2.17
2023-02-01T14:52:03.195Z,2.10
2023-02-01T14:54:29.967Z,1.95
2023-02-01T14:56:56.450Z,1.95
2023-02-01T14:59:24.395Z,2.55
2023-02-01T15:01:54.836Z,2.38
2023-02-01T15:04:22.877Z,2.20
2023-02-01T15:07:14.878Z,2.38
2023-02-01T15:09:49.801Z,1.95
2023-02-01T15:12:16.594Z,2.50
2023-02-01T15:14:50.347Z,2.15
2023-02-01T15:17:24.242Z,2.10
2023-02-01T15:19:57.841Z,2.35
2023-02-01T15:22:24.733Z,1.90
2023-02-01T15:24:55.035Z,2.70
2023-02-01T15:27:21.595Z,2.08
2023-02-01T15:29:48.017Z,2.80
2023-02-01T15:32:36.495Z,2.22
2023-02-01T15:35:03.481Z,2.55
2023-02-01T15:37:31.429Z,2.55
2023-02-01T15:40:13.123Z,2.20
2023-02-01T15:42:52.360Z,2.30
2023-02-01T15:45:19.701Z,1.77
2023-02-01T15:47:49.728Z,1.90
2023-02-01T15:50:22.306Z,1.75
2023-02-01T15:52:51.042Z,2.10
2023-02-01T15:55:20.167Z,2.00
2023-02-01T15:57:47.103Z,1.85
2023-02-01T16:00:34.565Z,1.75
2023-02-01T16:03:02.120Z,1.70
2023-02-01T16:05:28.642Z,1.85
2023-02-01T16:08:04.835Z,1.75
2023-02-01T16:10:31.917Z,1.70
2023-02-01T16:13:01.201Z,1.63
2023-02-01T16:15:30.427Z,1.90
2023-02-01T16:17:56.874Z,1.60
2023-02-01T16:20:23.253Z,1.48
2023-02-01T16:22:49.566Z,1.20
2023-02-01T16:25:15.946Z,1.35
2023-02-01T16:27:42.322Z,1.40
2023-02-01T16:30:10.807Z,1.50
2023-02-01T16:32:41.070Z,1.35
2023-02-01T16:35:23.048Z,1.35
2023-02-01T16:37:49.731Z,1.65
2023-02-01T16:40:16.835Z,2.60
2023-02-01T16:42:43.583Z,1.55
2023-02-01T16:45:10.118Z,1.52
2023-02-01T16:47:38.320Z,1.40
2023-02-01T16:50:17.565Z,1.73
2023-02-01T16:52:49.488Z,1.90
2023-02-01T16:55:16.822Z,1.63
2023-02-01T16:57:43.638Z,1.15
2023-02-01T17:00:23.503Z,0.70
2023-02-01T17:02:51.386Z,0.70
2023-02-01T17:05:17.991Z,0.28
2023-02-01T17:07:44.545Z,0.20
2023-02-01T17:10:34.164Z,0.22
2023-02-01T17:13:01.325Z,0.30
2023-02-01T17:15:29.813Z,0.30
2023-02-01T17:17:57.691Z,0.28
2023-02-01T17:20:25.183Z,0.73
2023-02-01T17:22:51.734Z,0.40
2023-02-01T17:25:18.951Z,0.30
2023-02-01T17:27:45.432Z,0.30
2023-02-01T17:30:12.538Z,0.60
2023-02-01T17:32:39.521Z,0.40
2023-02-01T17:35:13.379Z,0.30
2023-02-01T17:37:39.754Z,0.55
2023-02-01T17:40:06.405Z,0.43
2023-02-01T17:42:32.783Z,0.50
2023-02-01T17:45:00.943Z,0.57
2023-02-01T17:47:27.337Z,0.38
2023-02-01T17:49:56.769Z,0.50
2023-02-01T17:52:24.400Z,0.35
2023-02-01T17:54:53.960Z,0.60
2023-02-01T17:57:20.772Z,0.45
2023-02-01T17:59:47.302Z,0.60
2023-02-01T18:02:16.869Z,0.63
2023-02-01T18:04:43.223Z,0.60
2023-02-01T18:07:09.577Z,0.70
2023-02-01T18:09:35.918Z,0.40
2023-02-01T18:12:04.464Z,0.50
2023-02-01T18:14:30.947Z,0.55
2023-02-01T18:16:57.314Z,0.68
2023-02-01T18:19:23.778Z,0.70
2023-02-01T18:21:50.233Z,0.70
2023-02-01T18:24:17.189Z,0.60
2023-02-01T18:26:43.796Z,0.90
2023-02-01T18:29:10.245Z,0.90
2023-02-01T18:31:39.290Z,1.00
2023-02-01T18:34:05.659Z,1.20
2023-02-01T18:36:32.066Z,1.50
2023-02-01T18:38:58.585Z,1.05
2023-02-01T18:41:25.330Z,1.42
2023-02-01T18:43:52.228Z,1.77
2023-02-01T18:46:18.792Z,1.45
2023-02-01T18:48:45.328Z,1.30
2023-02-01T18:51:12.777Z,1.75
2023-02-01T18:53:39.489Z,1.60
2023-02-01T18:56:06.296Z,1.90
2023-02-01T18:58:32.676Z,1.83
2023-02-01T19:01:05.992Z,1.83
2023-02-01T19:03:32.437Z,1.80
2023-02-01T19:05:58.870Z,2.50
2023-02-01T19:08:25.903Z,3.00
2023-02-01T19:10:52.997Z,2.75
2023-02-01T19:13:23.364Z,2.90
2023-02-01T19:15:50.941Z,2.75
2023-02-01T19:18:20.225Z,2.58
2023-02-01T19:20:47.496Z,2.45
2023-02-01T19:23:14.195Z,2.50
2023-02-01T19:25:43.714Z,2.47
2023-02-01T19:28:10.136Z,2.42
2023-02-01T19:30:36.510Z,2.05
2023-02-01T19:33:04.489Z,1.98
2023-02-01T19:35:30.995Z,2.40
2023-02-01T19:37:57.453Z,2.50
2023-02-01T19:40:26.109Z,2.35
2023-02-01T19:42:52.848Z,2.30
2023-02-01T19:45:19.328Z,3.05
2023-02-01T19:47:45.904Z,2.70
2023-02-01T19:50:19.718Z,2.72
2023-02-01T19:52:46.166Z,2.65
2023-02-01T19:55:13.137Z,2.47
2023-02-01T19:57:39.963Z,2.30
2023-02-01T20:00:08.153Z,2.10
2023-02-01T20:02:33.816Z,2.50
2023-02-01T20:05:00.367Z,2.05
2023-02-01T20:07:26.715Z,2.47
2023-02-01T20:09:53.043Z,2.75
2023-02-01T20:12:19.582Z,3.30
2023-02-01T20:14:45.945Z,3.20
2023-02-01T20:17:14.250Z,3.13
2023-02-01T20:19:40.886Z,3.58
2023-02-01T20:22:07.186Z,3.70
2023-02-01T20:24:33.535Z,3.80
2023-02-01T20:27:01.782Z,3.25
2023-02-01T20:29:28.299Z,3.15
2023-02-01T20:31:54.726Z,3.00
2023-02-01T20:34:21.346Z,3.50
2023-02-01T20:36:47.854Z,2.42
2023-02-01T20:39:14.670Z,2.60
2023-02-01T20:41:41.518Z,3.40
2023-02-01T20:44:08.100Z,3.25
2023-02-01T20:46:34.533Z,2.40
2023-02-01T20:49:00.957Z,2.80
2023-02-01T20:51:27.419Z,3.05
2023-02-01T20:53:55.091Z,2.65
2023-02-01T20:56:22.061Z,2.78
2023-02-01T20:58:48.424Z,2.67
2023-02-01T21:01:15.489Z,2.65
2023-02-01T21:03:42.162Z,2.40
2023-02-01T21:06:09.900Z,2.58
2023-02-01T21:08:36.253Z,2.47
2023-02-01T21:11:02.555Z,2.70
2023-02-01T21:13:30.553Z,2.38
2023-02-01T21:15:57.033Z,2.53
2023-02-01T21:18:23.581Z,2.30
2023-02-01T21:20:50.292Z,2.22
2023-02-01T21:23:17.027Z,2.70
2023-02-01T21:25:43.948Z,1.90
2023-02-01T21:28:10.888Z,1.80
2023-02-01T21:30:37.562Z,1.88
2023-02-01T21:33:04.609Z,2.10
2023-02-01T21:35:31.177Z,1.95
2023-02-01T21:37:57.585Z,2.10
2023-02-01T21:40:23.965Z,2.08
2023-02-01T21:42:50.305Z,1.95
2023-02-01T21:45:17.052Z,1.67
2023-02-01T21:47:43.675Z,2.95
2023-02-01T21:50:14.503Z,2.08
2023-02-01T21:52:41.001Z,1.95
2023-02-01T21:55:07.728Z,1.70
2023-02-01T21:57:34.556Z,1.92
2023-02-01T22:00:00.880Z,1.80
2023-02-01T22:02:27.586Z,2.30
2023-02-01T22:04:54.051Z,2.03
2023-02-01T22:07:20.447Z,1.77
2023-02-01T22:09:47.011Z,1.83
2023-02-01T22:12:13.828Z,1.77
2023-02-01T22:14:40.827Z,1.88
2023-02-01T22:17:07.510Z,1.80
2023-02-01T22:19:33.911Z,1.73
2023-02-01T22:22:00.253Z,2.30
2023-02-01T22:24:26.619Z,1.83
2023-02-01T22:26:53.043Z,1.90
2023-02-01T22:29:19.524Z,1.83
2023-02-01T22:31:46.433Z,1.73
2023-02-01T22:34:13.229Z,1.60
2023-02-01T22:36:40.082Z,1.80
2023-02-01T22:39:06.522Z,1.77
2023-02-01T22:41:32.993Z,1.85
2023-02-01T22:44:00.833Z,1.80
2023-02-01T22:46:28.077Z,1.77
2023-02-01T22:48:54.423Z,1.40
2023-02-01T22:51:25.044Z,1.45
2023-02-01T22:54:06.099Z,1.60
2023-02-01T22:56:34.258Z,1.58
2023-02-01T22:59:02.140Z,1.58
2023-02-01T23:01:28.727Z,1.65
2023-02-01T23:03:58.905Z,1.52
2023-02-01T23:06:25.927Z,1.73
2023-02-01T23:08:59.366Z,1.67
2023-02-01T23:11:26.309Z,1.40
2023-02-01T23:13:52.868Z,1.88
2023-02-01T23:16:19.436Z,1.45
2023-02-01T23:18:45.839Z,1.50
2023-02-01T23:21:17.107Z,1.70
2023-02-01T23:23:53.316Z,1.48
2023-02-01T23:26:20.270Z,1.63
2023-02-01T23:28:47.306Z,1.50
2023-02-01T23:31:14.353Z,1.20
2023-02-01T23:33:40.797Z,2.00
2023-02-01T23:36:09.683Z,1.83
2023-02-01T23:38:36.559Z,1.80
2023-02-01T23:41:04.671Z,1.75
2023-02-01T23:43:49.461Z,1.55
2023-02-01T23:46:16.315Z,1.65
2023-02-01T23:48:43.144Z,1.55
2023-02-01T23:51:09.549Z,1.85
2023-02-01T23:53:36.099Z,1.70
2023-02-01T23:56:02.626Z,1.65
2023-02-01T23:58:28.988Z,1.70
